Time;durP1;ratioP1;P1;durP2;ratioP2;P2;SDS_P1;SDS_P2;PMS_P1;PMS_P2;Temp;Humidity;BMP_temperature;BMP_pressure;BME280_temperature;BME280_humidity;BME280_pressure;Samples;Min_cycle;Max_cycle;Signal;HPM_P1;HPM_P2
2022/12/16 00:00:37;;;;;;;1.95;1.02;;;-2.50;90.60;;;;;;6216941;23;20461;-76
2022/12/16 00:03:03;;;;;;;1.98;0.95;;;-2.40;90.60;;;;;;6244105;23;20342;-76
2022/12/16 00:05:29;;;;;;;1.88;0.93;;;-2.40;90.50;;;;;;6217004;23;20000;-76
2022/12/16 00:07:54;;;;;;;2.47;1.15;;;-2.40;90.50;;;;;;6192399;23;20389;-76
2022/12/16 00:10:21;;;;;;;3.38;1.20;;;-2.30;90.50;;;;;;6217847;23;20420;-77
2022/12/16 00:12:46;;;;;;;2.33;1.25;;;-2.30;90.40;;;;;;6244246;23;20008;-76
2022/12/16 00:15:12;;;;;;;3.45;1.52;;;-2.30;90.40;;;;;;6217540;23;20024;-76
2022/12/16 00:17:38;;;;;;;3.15;1.20;;;-2.30;90.30;;;;;;6243979;23;20047;-76
2022/12/16 00:20:05;;;;;;;1.73;1.13;;;-2.20;90.30;;;;;;6192260;23;20008;-76
2022/12/16 00:22:30;;;;;;;2.70;1.20;;;-2.20;90.30;;;;;;6244391;23;19996;-76
2022/12/16 00:24:56;;;;;;;2.47;1.30;;;-2.10;90.30;;;;;;6216795;23;20007;-76
2022/12/16 00:27:22;;;;;;;2.20;1.10;;;-2.10;90.30;;;;;;6243449;23;20046;-76
2022/12/16 00:29:47;;;;;;;2.22;1.10;;;-2.10;90.30;;;;;;6216876;23;20123;-76
2022/12/16 00:32:13;;;;;;;3.90;1.50;;;-2.00;90.30;;;;;;6243644;23;20006;-77
2022/12/16 00:34:39;;;;;;;2.95;1.40;;;-2.00;90.30;;;;;;6217335;23;20433;-76
2022/12/16 00:37:04;;;;;;;2.20;1.10;;;-2.00;90.30;;;;;;6243928;23;20004;-77
2022/12/16 00:39:30;;;;;;;2.75;1.25;;;-2.00;90.20;;;;;;6216823;23;20019;-76
2022/12/16 00:41:56;;;;;;;2.42;1.17;;;-2.00;90.20;;;;;;6216715;23;20058;-76
2022/12/16 00:44:22;;;;;;;3.22;1.50;;;-1.90;90.20;;;;;;6244289;23;19996;-76
2022/12/16 00:46:47;;;;;;;3.05;1.40;;;-1.90;90.20;;;;;;6244266;23;20452;-76
2022/12/16 00:49:13;;;;;;;2.85;1.27;;;-1.90;90.20;;;;;;6217021;23;20306;-76
2022/12/16 00:51:39;;;;;;;2.13;1.10;;;-1.90;90.20;;;;;;6244405;23;20007;-76
2022/12/16 00:54:05;;;;;;;2.15;1.13;;;-1.90;90.20;;;;;;6243849;23;20447;-76
2022/12/16 00:56:31;;;;;;;2.75;1.20;;;-1.80;90.50;;;;;;6243643;23;19997;-76
2022/12/16 00:58:56;;;;;;;2.72;1.35;;;-1.90;90.20;;;;;;6217420;23;20066;-76
2022/12/16 01:01:22;;;;;;;2.63;1.10;;;-1.90;90.20;;;;;;6191805;23;20305;-76
2022/12/16 01:03:48;;;;;;;2.65;1.38;;;-1.90;90.20;;;;;;6217057;23;20000;-76
2022/12/16 01:06:15;;;;;;;2.55;1.27;;;-1.80;90.20;;;;;;6243460;23;20000;-76
2022/12/16 01:08:49;;;;;;;1.15;0.80;;;-1.80;90.30;;;;;;6190758;23;20003;-76
2022/12/16 01:11:17;;;;;;;2.70;1.13;;;-1.80;90.30;;;;;;6192850;23;20428;-76
2022/12/16 01:13:43;;;;;;;1.80;1.17;;;-1.80;90.30;;;;;;6216503;23;20026;-77
2022/12/16 01:16:08;;;;;;;3.33;1.58;;;-1.70;90.30;;;;;;6191473;23;20087;-76
2022/12/16 01:18:34;;;;;;;2.63;1.27;;;-1.80;90.20;;;;;;6243361;23;19996;-76
2022/12/16 01:21:03;;;;;;;2.72;1.40;;;-1.70;90.30;;;;;;6216384;23;20015;-76
2022/12/16 01:23:28;;;;;;;3.05;1.48;;;-1.70;90.20;;;;;;6243144;23;20371;-76
2022/12/16 01:25:58;;;;;;;2.63;1.30;;;-1.70;90.20;;;;;;6186760;23;20039;-76
2022/12/16 01:28:24;;;;;;;2.47;1.23;;;-1.70;90.20;;;;;;6212289;23;20025;-76
2022/12/16 01:31:00;;;;;;;2.75;1.35;;;-1.70;90.50;;;;;;6243281;23;20004;-76
2022/12/16 01:33:28;;;;;;;2.42;1.20;;;-1.60;90.20;;;;;;6192807;23;20054;-76
2022/12/16 01:36:05;;;;;;;2.85;1.30;;;-1.60;90.20;;;;;;6243761;23;20042;-76
2022/12/16 01:38:31;;;;;;;3.05;1.48;;;-1.60;90.20;;;;;;6215100;23;20467;-76
2022/12/16 01:40:57;;;;;;;2.63;1.38;;;-1.40;90.20;;;;;;6211118;23;20008;-76
2022/12/16 01:43:27;;;;;;;1.67;1.00;;;-1.50;90.20;;;;;;6237575;23;20007;-76
2022/12/16 01:45:59;;;;;;;3.50;1.45;;;-1.50;90.20;;;;;;6216322;23;20309;-76
2022/12/16 01:48:39;;;;;;;3.33;1.50;;;-1.50;90.20;;;;;;6217302;23;20324;-76
2022/12/16 01:51:11;;;;;;;2.35;1.30;;;-1.30;90.20;;;;;;6243162;23;20004;-76
2022/12/16 01:53:39;;;;;;;2.95;1.50;;;-1.50;90.10;;;;;;6191971;23;20031;-76
2022/12/16 01:56:05;;;;;;;2.50;1.20;;;-1.40;90.20;;;;;;6191639;23;20008;-76
2022/12/16 01:58:35;;;;;;;2.63;1.20;;;-1.50;90.10;;;;;;6243164;23;20110;-76
2022/12/16 02:01:02;;;;;;;2.53;1.27;;;-1.30;90.20;;;;;;6191748;23;20016;-76
2022/12/16 02:03:32;;;;;;;2.72;1.30;;;-1.40;90.10;;;;;;6243080;23;20004;-76
2022/12/16 02:05:59;;;;;;;1.50;0.93;;;-1.40;90.10;;;;;;6242829;23;20008;-76
2022/12/16 02:08:25;;;;;;;1.90;1.20;;;-1.30;90.40;;;;;;6211150;23;20011;-76
2022/12/16 02:11:12;;;;;;;1.77;1.13;;;-1.30;90.10;;;;;;6242453;23;20087;-76
2022/12/16 02:14:02;;;;;;;1.98;1.10;;;-1.30;90.20;;;;;;6218702;23;20006;-76
2022/12/16 02:17:00;;;;;;;1.85;1.13;;;-1.30;90.20;;;;;;6228779;23;20468;-76
2022/12/16 02:19:50;;;;;;;2.92;1.30;;;-1.30;90.10;;;;;;6212492;23;20054;-76
2022/12/16 02:22:38;;;;;;;2.90;1.20;;;-1.30;90.10;;;;;;6208987;23;20070;-76
2022/12/16 02:25:40;;;;;;;2.53;1.20;;;-1.20;90.10;;;;;;6182070;23;20005;-76
2022/12/16 02:28:41;;;;;;;2.90;1.25;;;-1.20;90.10;;;;;;6189036;23;20003;-75
2022/12/16 02:31:15;;;;;;;1.60;1.00;;;-1.20;90.10;;;;;;6164077;23;20024;-76
2022/12/16 02:33:59;;;;;;;1.90;1.15;;;-1.20;90.10;;;;;;6186796;23;20001;-75
2022/12/16 02:36:41;;;;;;;2.95;1.42;;;-1.10;90.20;;;;;;6183055;23;20011;-76
2022/12/16 02:39:14;;;;;;;1.67;0.90;;;-1.20;90.10;;;;;;6180383;23;20369;-76
2022/12/16 02:41:58;;;;;;;1.70;1.00;;;-1.20;90.40;;;;;;6185906;23;20012;-76
2022/12/16 02:44:39;;;;;;;2.38;1.10;;;-1.20;90.10;;;;;;6205724;23;20012;-76
2022/12/16 02:47:04;;;;;;;2.78;1.15;;;-1.20;90.10;;;;;;6208456;23;20012;-76
2022/12/16 02:49:45;;;;;;;1.23;0.85;;;-1.10;90.20;;;;;;6212171;23;20044;-76
2022/12/16 02:52:11;;;;;;;1.55;1.10;;;-1.10;90.20;;;;;;6182628;23;20434;-76
2022/12/16 02:54:37;;;;;;;1.90;1.00;;;-1.10;90.20;;;;;;6214243;23;20001;-76
2022/12/16 02:57:25;;;;;;;2.25;1.17;;;-1.20;90.10;;;;;;6187019;23;20009;-76
2022/12/16 03:00:04;;;;;;;2.75;1.48;;;-1.10;90.10;;;;;;6179504;23;20055;-76
2022/12/16 03:03:03;;;;;;;1.95;1.13;;;-1.10;90.10;;;;;;6180975;23;20028;-76
2022/12/16 03:05:39;;;;;;;2.47;1.23;;;-1.10;90.20;;;;;;6210316;23;20325;-76
2022/12/16 03:08:10;;;;;;;1.80;1.10;;;-1.10;90.40;;;;;;6183973;23;20008;-76
2022/12/16 03:10:41;;;;;;;1.88;1.20;;;-1.00;90.20;;;;;;6186999;23;20005;-75
2022/12/16 03:13:09;;;;;;;2.05;1.40;;;-0.90;90.20;;;;;;6213474;23;20005;-75
2022/12/16 03:15:36;;;;;;;1.83;1.10;;;-1.00;90.20;;;;;;6187874;23;20004;-75
2022/12/16 03:18:04;;;;;;;2.67;1.20;;;-1.00;90.20;;;;;;6186864;23;20087;-76
2022/12/16 03:20:45;;;;;;;2.08;1.10;;;-1.00;90.10;;;;;;6208255;23;20009;-76
2022/12/16 03:23:19;;;;;;;3.08;1.35;;;-1.00;90.10;;;;;;6181071;23;20012;-75
2022/12/16 03:25:47;;;;;;;1.80;1.10;;;-1.00;90.10;;;;;;6213335;23;19993;-76
2022/12/16 03:28:36;;;;;;;2.67;1.20;;;-0.90;90.20;;;;;;6213456;23;20007;-76
2022/12/16 03:31:17;;;;;;;2.30;1.15;;;-0.90;90.20;;;;;;6210261;23;20008;-75
2022/12/16 03:33:51;;;;;;;1.63;1.13;;;-0.90;90.20;;;;;;6185581;23;20005;-75
2022/12/16 03:36:21;;;;;;;2.65;1.50;;;-0.90;90.20;;;;;;6213908;23;20004;-75
2022/12/16 03:38:49;;;;;;;2.70;1.48;;;-0.90;90.10;;;;;;6213785;23;20004;-75
2022/12/16 03:41:17;;;;;;;2.90;1.48;;;-0.90;90.20;;;;;;6213271;23;20032;-75
2022/12/16 03:43:43;;;;;;;2.45;1.30;;;-1.00;90.40;;;;;;6187274;23;20037;-75
2022/12/16 03:46:10;;;;;;;2.17;1.23;;;-0.90;90.20;;;;;;6185308;23;20007;-75
2022/12/16 03:48:45;;;;;;;2.88;1.40;;;-0.90;90.50;;;;;;6213304;23;20026;-75
2022/12/16 03:51:10;;;;;;;4.45;1.52;;;-0.90;90.20;;;;;;6179821;23;20059;-75
2022/12/16 03:53:36;;;;;;;3.53;1.65;;;-0.90;90.20;;;;;;6186886;23;20429;-75
2022/12/16 03:56:02;;;;;;;3.83;2.13;;;-0.90;90.20;;;;;;6213429;23;20059;-75
2022/12/16 03:58:27;;;;;;;4.05;1.63;;;-0.90;90.10;;;;;;6213216;23;20008;-75
2022/12/16 04:00:53;;;;;;;3.55;1.75;;;-0.90;90.20;;;;;;6159369;23;20147;-75
2022/12/16 04:03:21;;;;;;;3.42;1.67;;;-0.90;90.20;;;;;;6186233;23;20083;-75
2022/12/16 04:05:47;;;;;;;3.88;1.70;;;-0.90;90.20;;;;;;6213453;23;20005;-75
2022/12/16 04:08:13;;;;;;;3.30;1.70;;;-0.90;90.20;;;;;;6213839;23;20469;-75
2022/12/16 04:29:16;;;;;;;2.63;1.30;;;-0.70;90.20;;;;;;6220263;23;20015;-75
2022/12/16 04:31:42;;;;;;;1.85;1.08;;;-0.70;90.20;;;;;;6216654;23;20000;-75
